Aviation Digital Data Service (ADDS)

Output produced by TAFs form (2128 UTC 25 February 2018)
found at http://aviationweather.gov/adds/tafs/
 
LFSB 252100Z 08011KT 030V100 CAVOK M04/M16 Q1020 NOSIG
TAF LFSB 251700Z 2518/2618 08010KT CAVOK 
     BECMG 2607/2609 01010KT
       
LSZH 252120Z 03008KT 350V060 CAVOK M07/M15 Q1019 NOSIG
TAF LSZH 252025Z 2521/2703 04008KT CAVOK TXM06/2614Z TNM11/2606Z 
     BECMG 2521/2524 9999 SCT040 
     BECMG 2607/2610 05013KT 
     TEMPO 2608/2619 05017G30KT 
     BECMG 2620/2622 04007KT
       
LSGG 252120Z 04019KT 9999 FEW035 M04/M12 Q1015 NOSIG
TAF LSGG 252025Z 2521/2703 05020G35KT 9999 FEW035 TXM04/2615Z TNM06/2606Z
       
LSZB 252120Z AUTO 05009KT 360V080 9999 FEW040 M06/M13 Q1016
TAF LSZB 251425Z 2515/2524 07010KT 8000 BKN030
       
LSZA 252120Z AUTO VRB02KT 9999 BKN038 BKN048 M02/M08 Q1014
TAF AMD LSZA 251621Z 2516/2524 22005KT 9999 FEW020 BKN040 
     PROB30 2518/2524 4000 BR
       
LSZG 252120Z AUTO 05018KT CAVOK M06/M14 Q1018
TAF LSZG 251425Z 2515/2524 07015KT CAVOK 
     TEMPO 2515/2518 08020G30KT 
     PROB30 
     TEMPO 2518/2524 9999 SCT030
       
LSZR 252120Z AUTO 07011KT 030V100 9999 NCD M06/M13 Q1018
TAF LSZR 251425Z 2515/2524 04011KT 9999 SCT045 
     PROB40 
     TEMPO 2515/2519 04015G27KT CAVOK
       
LSGS 252120Z AUTO 26004KT 9999 OVC036 M03/M09 Q1012
TAF LSGS 251425Z 2515/2524 25015KT 9999 SCT030 BKN050 
     BECMG 2515/2517 FEW030 SCT050 
     BECMG 2518/2520 VRB03KT
       
LSGC 252120Z AUTO 06013G26KT CAVOK M11/M16 Q1012
TAF LSGC 251425Z 2515/2524 05018KT CAVOK